Time;durP1;ratioP1;P1;durP2;ratioP2;P2;SDS_P1;SDS_P2;PMS_P1;PMS_P2;Temp;Humidity;BMP_temperature;BMP_pressure;BME280_temperature;BME280_humidity;BME280_pressure;Samples;Min_cycle;Max_cycle;Signal;HPM_P1;HPM_P2
2022/05/12 00:00:44;;;;;;;5.95;2.25;;;21.80;32.90;;;;;;5112097;28;20016;-74
2022/05/12 00:03:12;;;;;;;6.18;2.22;;;21.80;33.20;;;;;;5115483;28;20164;-74
2022/05/12 00:05:37;;;;;;;3.05;1.48;;;21.80;33.40;;;;;;5116146;28;20024;-73
2022/05/12 00:08:04;;;;;;;5.57;1.83;;;21.70;33.50;;;;;;5115780;28;20135;-74
2022/05/12 00:10:29;;;;;;;5.35;1.88;;;21.70;33.10;;;;;;5115477;28;20402;-74
2022/05/12 00:12:57;;;;;;;4.05;1.90;;;21.80;32.90;;;;;;5115050;28;20035;-75
2022/05/12 00:15:27;;;;;;;6.63;2.17;;;21.70;32.70;;;;;;5116783;28;20026;-74
2022/05/12 00:17:53;;;;;;;5.82;1.73;;;21.70;32.60;;;;;;5115247;28;20031;-74
2022/05/12 00:20:22;;;;;;;5.07;1.88;;;21.70;32.40;;;;;;5115470;28;20031;-75
2022/05/12 00:22:48;;;;;;;3.25;1.70;;;21.70;31.80;;;;;;5115620;28;20472;-74
2022/05/12 00:25:21;;;;;;;5.85;1.75;;;21.80;31.80;;;;;;5115297;28;20028;-75
2022/05/12 00:27:47;;;;;;;5.95;1.80;;;21.80;31.20;;;;;;5115768;28;20020;-74
2022/05/12 00:30:14;;;;;;;7.18;1.90;;;21.80;31.10;;;;;;5115094;28;20464;-74
2022/05/12 00:32:43;;;;;;;6.35;1.50;;;21.80;30.60;;;;;;5114787;28;20032;-73
2022/05/12 00:35:11;;;;;;;3.25;1.90;;;21.80;30.50;;;;;;5115075;28;20020;-73
2022/05/12 00:37:36;;;;;;;5.03;2.03;;;21.80;30.60;;;;;;5115023;28;20487;-73
2022/05/12 00:40:03;;;;;;;3.60;1.70;;;21.80;30.40;;;;;;5115346;28;20024;-74
2022/05/12 00:42:29;;;;;;;2.83;1.42;;;21.80;30.40;;;;;;5115345;28;20066;-73
2022/05/12 00:44:54;;;;;;;4.93;1.60;;;21.70;30.70;;;;;;5115264;28;20016;-73
2022/05/12 00:47:20;;;;;;;7.22;1.60;;;21.70;30.50;;;;;;5115160;28;20164;-73
2022/05/12 00:49:49;;;;;;;6.38;1.80;;;21.70;31.00;;;;;;5114840;28;20020;-73
2022/05/12 00:52:18;;;;;;;4.80;1.55;;;21.60;30.90;;;;;;5114793;28;20024;-73
2022/05/12 00:55:01;;;;;;;6.72;1.80;;;21.60;30.90;;;;;;5114662;28;20073;-73
2022/05/12 00:57:39;;;;;;;4.95;1.48;;;21.60;31.00;;;;;;5115047;28;20059;-73
2022/05/12 01:00:09;;;;;;;7.32;1.77;;;21.50;32.00;;;;;;5114980;28;20460;-74
2022/05/12 01:02:36;;;;;;;2.90;1.80;;;21.40;31.40;;;;;;5114403;28;20027;-73
2022/05/12 01:05:03;;;;;;;4.38;1.70;;;21.40;31.60;;;;;;5114583;28;20020;-73
2022/05/12 01:07:28;;;;;;;5.90;1.75;;;21.30;32.00;;;;;;5114385;28;20075;-74
2022/05/12 01:09:55;;;;;;;5.20;1.40;;;21.20;32.10;;;;;;5114862;28;20054;-74
2022/05/12 01:12:21;;;;;;;4.60;1.83;;;21.20;31.90;;;;;;5114288;28;20054;-73
2022/05/12 01:14:47;;;;;;;4.05;1.33;;;21.20;32.10;;;;;;5114506;28;20046;-73
2022/05/12 01:17:12;;;;;;;4.68;1.67;;;21.20;32.10;;;;;;5114563;28;20460;-73
2022/05/12 01:19:41;;;;;;;4.25;1.75;;;21.00;33.00;;;;;;5114431;28;20020;-73
2022/05/12 01:22:19;;;;;;;7.05;1.67;;;21.00;32.50;;;;;;5115585;28;20110;-73
2022/05/12 01:24:45;;;;;;;3.95;2.10;;;21.00;32.70;;;;;;5114300;28;20108;-73
2022/05/12 01:27:20;;;;;;;9.77;1.80;;;20.90;33.00;;;;;;5114007;28;20424;-73
2022/05/12 01:29:50;;;;;;;2.97;1.70;;;20.90;33.30;;;;;;5114232;28;20024;-73
2022/05/12 01:32:16;;;;;;;3.53;1.63;;;20.90;33.40;;;;;;5113784;28;20076;-72
2022/05/12 01:34:42;;;;;;;5.22;1.90;;;20.80;33.60;;;;;;5114267;28;20028;-72
2022/05/12 01:37:07;;;;;;;5.57;1.92;;;20.80;33.80;;;;;;5114198;28;20023;-74
2022/05/12 01:39:35;;;;;;;6.43;1.58;;;20.80;33.90;;;;;;5113997;28;20027;-73
2022/05/12 01:42:05;;;;;;;6.45;1.80;;;20.80;34.00;;;;;;5114111;28;20539;-73
2022/05/12 01:44:32;;;;;;;4.55;1.83;;;20.70;34.20;;;;;;5114098;28;20120;-72
2022/05/12 01:46:58;;;;;;;3.45;1.70;;;20.60;34.50;;;;;;5114113;28;20088;-73
2022/05/12 01:49:24;;;;;;;6.38;1.52;;;20.60;34.80;;;;;;5113982;28;20459;-73
2022/05/12 01:51:54;;;;;;;6.30;2.33;;;20.60;34.80;;;;;;5113706;28;20020;-72
2022/05/12 01:54:20;;;;;;;5.88;1.90;;;20.50;34.90;;;;;;5113720;28;20062;-73
2022/05/12 01:56:46;;;;;;;6.10;1.63;;;20.60;35.00;;;;;;5113685;28;20357;-73
2022/05/12 01:59:11;;;;;;;3.83;1.58;;;20.60;35.10;;;;;;5113877;28;20028;-72
2022/05/12 02:01:37;;;;;;;5.20;1.75;;;20.50;35.20;;;;;;5113733;28;20020;-72
2022/05/12 02:04:05;;;;;;;8.05;1.77;;;20.50;35.40;;;;;;5113580;28;20034;-73
2022/05/12 02:06:32;;;;;;;4.32;1.52;;;20.40;35.50;;;;;;5113820;27;20028;-72
2022/05/12 02:08:58;;;;;;;5.90;1.40;;;20.40;35.60;;;;;;5116918;27;20031;-72
2022/05/12 02:11:24;;;;;;;5.40;1.95;;;20.40;35.80;;;;;;5116510;27;20030;-74
2022/05/12 02:13:50;;;;;;;3.83;1.67;;;20.40;35.80;;;;;;5116761;27;20074;-74
2022/05/12 02:16:16;;;;;;;5.65;1.55;;;20.30;36.00;;;;;;5134666;27;20072;-73
2022/05/12 02:18:43;;;;;;;7.72;2.13;;;20.30;36.00;;;;;;5116525;27;20049;-73
2022/05/12 02:21:09;;;;;;;4.63;1.80;;;20.30;36.30;;;;;;5116303;27;20072;-73
2022/05/12 02:23:35;;;;;;;4.43;1.60;;;20.30;36.20;;;;;;5115784;28;20024;-73
2022/05/12 02:26:00;;;;;;;2.88;2.00;;;20.20;36.30;;;;;;5116413;27;20022;-73
2022/05/12 02:28:26;;;;;;;5.07;1.58;;;20.30;37.20;;;;;;5115764;27;20535;-75
2022/05/12 02:30:52;;;;;;;5.35;1.88;;;20.20;36.70;;;;;;5116525;27;20023;-72
2022/05/12 02:33:17;;;;;;;2.33;1.73;;;20.20;36.90;;;;;;5116293;27;20039;-73
2022/05/12 02:35:43;;;;;;;3.55;1.70;;;20.20;37.10;;;;;;5116167;27;20030;-73
2022/05/12 02:38:10;;;;;;;4.90;1.92;;;20.20;37.80;;;;;;5116579;27;20490;-73
2022/05/12 02:40:36;;;;;;;5.85;1.90;;;20.20;37.30;;;;;;5116222;27;20030;-73
2022/05/12 02:43:02;;;;;;;3.25;1.90;;;20.10;37.70;;;;;;5116358;27;20375;-74
2022/05/12 02:45:29;;;;;;;4.97;2.13;;;20.10;37.90;;;;;;5116224;28;20027;-73
2022/05/12 02:47:55;;;;;;;8.20;1.90;;;20.10;38.10;;;;;;5116074;27;20035;-74
2022/05/12 02:50:22;;;;;;;3.88;1.98;;;20.00;38.30;;;;;;5116230;27;20026;-73
2022/05/12 02:52:48;;;;;;;3.35;2.28;;;20.00;38.70;;;;;;5116113;27;20023;-73
2022/05/12 02:55:14;;;;;;;4.53;2.08;;;19.90;39.00;;;;;;5115895;27;20035;-73
2022/05/12 02:57:40;;;;;;;4.43;1.70;;;19.90;39.00;;;;;;5115920;27;20049;-74
2022/05/12 03:00:09;;;;;;;5.07;1.80;;;19.90;39.20;;;;;;5115638;28;20027;-73
2022/05/12 03:02:35;;;;;;;7.43;2.00;;;19.80;39.50;;;;;;5116171;27;20027;-73
2022/05/12 03:05:00;;;;;;;4.70;2.20;;;19.80;39.70;;;;;;5116306;28;20075;-74
2022/05/12 03:07:26;;;;;;;6.63;2.22;;;19.80;39.90;;;;;;5115865;28;20085;-73
2022/05/12 03:09:51;;;;;;;4.80;2.20;;;19.80;39.80;;;;;;5116170;27;20016;-73
2022/05/12 03:12:17;;;;;;;8.13;1.90;;;19.90;40.10;;;;;;5115761;27;20027;-73
2022/05/12 03:14:43;;;;;;;9.48;2.25;;;19.80;39.80;;;;;;5116859;28;20045;-74
2022/05/12 03:17:08;;;;;;;5.88;2.00;;;19.80;40.00;;;;;;5115783;28;20020;-73
2022/05/12 03:19:34;;;;;;;5.53;2.00;;;19.80;40.10;;;;;;5115803;28;20383;-73
2022/05/12 03:22:00;;;;;;;7.72;2.45;;;19.70;40.10;;;;;;5115288;28;20131;-74
2022/05/12 03:24:25;;;;;;;3.65;1.75;;;19.80;40.20;;;;;;5115730;28;20033;-74
2022/05/12 03:26:51;;;;;;;9.30;2.50;;;19.70;40.00;;;;;;5115597;28;20379;-74
2022/05/12 03:29:17;;;;;;;5.75;1.83;;;19.70;40.30;;;;;;5115563;28;20023;-74
2022/05/12 03:31:43;;;;;;;3.42;1.80;;;19.70;40.50;;;;;;5115416;28;20023;-74
2022/05/12 03:34:08;;;;;;;6.35;2.38;;;19.60;40.40;;;;;;5115403;28;20368;-76
2022/05/12 03:36:39;;;;;;;4.97;2.17;;;19.70;40.70;;;;;;5101768;27;20052;-74
2022/05/12 03:39:05;;;;;;;5.88;2.05;;;19.60;40.60;;;;;;5119944;27;20471;-74
2022/05/12 03:41:31;;;;;;;4.35;2.03;;;19.60;41.10;;;;;;5119723;27;20030;-74
2022/05/12 03:46:42;;;;;;;7.05;2.47;;;19.50;41.30;;;;;;5137907;27;20042;-74
2022/05/12 03:49:07;;;;;;;6.80;2.85;;;19.50;41.60;;;;;;5119435;27;20027;-73
2022/05/12 03:51:33;;;;;;;4.18;2.15;;;19.40;41.70;;;;;;5119531;27;20442;-74
2022/05/12 03:53:59;;;;;;;7.82;2.28;;;19.50;42.00;;;;;;5121510;27;20083;-74
2022/05/12 03:56:26;;;;;;;5.10;3.38;;;19.50;42.00;;;;;;5119357;27;20105;-73
2022/05/12 03:58:51;;;;;;;7.47;3.20;;;19.40;42.20;;;;;;5119155;27;20030;-73
2022/05/12 04:01:17;;;;;;;5.80;3.50;;;19.30;42.60;;;;;;5119382;27;20027;-73
2022/05/12 04:03:45;;;;;;;6.03;3.17;;;19.20;42.80;;;;;;5119175;27;20440;-74
2022/05/12 04:06:11;;;;;;;4.00;2.60;;;19.20;43.20;;;;;;5119307;27;20019;-73
2022/05/12 04:08:36;;;;;;;7.82;2.67;;;19.10;43.70;;;;;;5118925;27;20475;-75
2022/05/12 04:11:02;;;;;;;3.67;2.22;;;19.00;43.80;;;;;;5118860;27;20114;-73
2022/05/12 04:13:28;;;;;;;4.05;2.30;;;19.10;44.10;;;;;;5118798;27;20065;-74
2022/05/12 04:15:54;;;;;;;7.07;2.30;;;19.00;44.00;;;;;;5118915;27;20019;-73
2022/05/12 04:18:19;;;;;;;6.03;2.05;;;19.00;44.10;;;;;;5118697;27;20072;-74
2022/05/12 04:20:45;;;;;;;4.47;2.08;;;19.00;44.50;;;;;;5119155;27;20027;-74
2022/05/12 04:23:11;;;;;;;4.80;1.85;;;18.90;45.30;;;;;;5119005;27;20027;-74
2022/05/12 04:25:36;;;;;;;6.03;2.22;;;18.90;45.90;;;;;;5118822;27;20023;-72
2022/05/12 04:28:04;;;;;;;5.00;2.17;;;18.90;46.20;;;;;;5118423;27;20114;-72
2022/05/12 04:30:30;;;;;;;3.13;2.17;;;18.80;46.50;;;;;;5118630;27;20020;-72
2022/05/12 04:35:09;;;;;;;2.88;1.88;;;18.80;46.50;;;;;;5118347;27;20027;-73
2022/05/12 04:35:41;;;;;;;;;;;18.80;46.70;;;;;;5137244;27;20063;-73
2022/05/12 04:38:07;;;;;;;;;;;18.80;46.90;;;;;;5137400;27;20002;-73
2022/05/12 04:40:32;;;;;;;2.55;1.92;;;18.80;47.20;;;;;;5118547;27;20355;-73
2022/05/12 04:42:59;;;;;;;3.75;1.95;;;18.80;47.60;;;;;;5118512;27;20135;-72
2022/05/12 04:45:27;;;;;;;5.18;2.53;;;18.80;47.90;;;;;;5118123;27;20027;-73
2022/05/12 04:47:53;;;;;;;5.20;2.30;;;18.80;48.10;;;;;;5117526;27;20023;-73
2022/05/12 04:50:25;;;;;;;3.80;2.17;;;18.80;48.50;;;;;;5118353;27;20034;-73
2022/05/12 04:52:51;;;;;;;2.83;2.30;;;18.80;48.50;;;;;;5136470;27;20428;-75
2022/05/12 04:55:17;;;;;;;3.20;1.70;;;18.80;48.70;;;;;;5117965;27;20019;-72
2022/05/12 04:57:46;;;;;;;5.20;2.30;;;18.70;48.70;;;;;;5118163;27;20064;-72
2022/05/12 05:00:20;;;;;;;6.20;2.70;;;18.70;48.80;;;;;;5117862;27;20399;-72
2022/05/12 05:02:45;;;;;;;7.30;2.05;;;18.70;49.20;;;;;;5118215;27;20030;-73
2022/05/12 05:05:12;;;;;;;5.05;2.42;;;18.80;49.40;;;;;;5118279;27;20383;-72
2022/05/12 05:07:38;;;;;;;2.75;2.17;;;18.70;50.00;;;;;;5117760;27;20510;-72
2022/05/12 05:10:04;;;;;;;7.72;2.63;;;18.70;49.90;;;;;;5117875;27;20023;-75
2022/05/12 05:12:31;;;;;;;5.90;2.35;;;18.70;50.10;;;;;;5117501;27;20051;-73
2022/05/12 05:14:57;;;;;;;11.70;2.38;;;18.70;50.00;;;;;;5117931;27;20114;-73
2022/05/12 05:17:23;;;;;;;5.18;2.70;;;18.70;50.00;;;;;;5117729;27;20103;-73
2022/05/12 05:19:50;;;;;;;5.90;2.85;;;18.60;50.60;;;;;;5117387;27;20019;-72
2022/05/12 05:22:15;;;;;;;3.60;2.25;;;18.60;50.80;;;;;;5117659;27;20435;-73
2022/05/12 05:24:41;;;;;;;5.18;2.63;;;18.60;51.20;;;;;;5116770;27;20054;-74
2022/05/12 05:27:07;;;;;;;8.70;2.30;;;18.70;51.40;;;;;;5117036;27;20379;-73
2022/05/12 05:29:33;;;;;;;8.00;3.13;;;18.80;51.20;;;;;;5116655;27;20134;-73
2022/05/12 05:31:58;;;;;;;7.95;3.50;;;18.90;51.40;;;;;;5116654;27;20129;-72
2022/05/12 05:34:25;;;;;;;7.75;3.03;;;18.90;51.50;;;;;;5117121;27;20538;-73
2022/05/12 05:36:50;;;;;;;5.13;2.60;;;19.00;51.30;;;;;;5117142;27;20022;-72
2022/05/12 05:39:25;;;;;;;7.38;2.70;;;19.10;51.00;;;;;;5116792;27;20405;-72
2022/05/12 05:41:58;;;;;;;5.07;2.88;;;19.20;50.70;;;;;;5117128;27;20371;-73
2022/05/12 05:44:24;;;;;;;5.50;2.67;;;19.40;50.30;;;;;;5116796;27;20027;-72
2022/05/12 05:46:49;;;;;;;4.57;2.38;;;19.40;50.30;;;;;;5116944;27;20023;-73
2022/05/12 05:49:16;;;;;;;5.13;2.90;;;19.50;50.00;;;;;;5116907;27;20027;-73
2022/05/12 05:54:31;;;;;;;9.60;2.60;;;19.70;47.70;;;;;;5135221;27;20110;-73
2022/05/12 05:56:57;;;;;;;4.60;2.17;;;19.80;46.80;;;;;;5116658;27;20043;-74
2022/05/12 05:59:22;;;;;;;10.27;2.15;;;19.80;46.00;;;;;;5115639;27;20107;-74
2022/05/12 06:01:48;;;;;;;10.82;2.33;;;19.90;45.80;;;;;;5116465;27;20031;-73
2022/05/12 06:04:13;;;;;;;6.20;2.50;;;20.00;45.30;;;;;;5116372;27;20023;-72
2022/05/12 06:06:39;;;;;;;8.82;2.42;;;19.80;46.10;;;;;;5116203;27;20111;-73
2022/05/12 06:09:05;;;;;;;3.63;2.65;;;19.80;46.10;;;;;;5116444;27;20027;-72
2022/05/12 06:11:30;;;;;;;6.00;2.28;;;19.80;46.20;;;;;;5116802;27;20046;-73
2022/05/12 06:13:56;;;;;;;8.30;3.15;;;19.60;46.30;;;;;;5116467;27;20043;-74
2022/05/12 06:16:22;;;;;;;6.40;3.03;;;19.70;47.10;;;;;;5116141;27;20087;-75
2022/05/12 06:18:48;;;;;;;7.85;2.63;;;19.70;47.20;;;;;;5116388;27;20431;-75
2022/05/12 06:21:13;;;;;;;6.97;2.67;;;19.90;46.70;;;;;;5115790;27;20015;-75
2022/05/12 06:23:40;;;;;;;7.38;2.58;;;19.90;46.00;;;;;;5116780;27;20054;-75
2022/05/12 06:26:13;;;;;;;14.18;3.60;;;19.80;46.70;;;;;;5116397;27;20027;-76
2022/05/12 06:28:41;;;;;;;8.85;3.13;;;19.80;49.70;;;;;;5116753;27;20023;-77
2022/05/12 06:31:07;;;;;;;8.70;2.42;;;20.00;47.80;;;;;;5116091;27;20467;-76
2022/05/12 06:33:33;;;;;;;8.35;3.08;;;20.00;46.70;;;;;;5116268;27;20035;-76
2022/05/12 06:36:03;;;;;;;9.48;2.90;;;20.10;46.80;;;;;;5116065;27;20026;-76
2022/05/12 06:38:28;;;;;;;10.75;2.90;;;20.20;46.70;;;;;;5115794;27;20027;-76
2022/05/12 06:40:54;;;;;;;9.65;3.00;;;20.30;45.50;;;;;;5134643;27;20019;-76
2022/05/12 06:43:19;;;;;;;7.47;2.97;;;20.20;45.50;;;;;;5115893;27;20387;-75
2022/05/12 06:45:45;;;;;;;7.53;2.22;;;20.20;45.40;;;;;;5115666;27;20031;-77
2022/05/12 06:48:11;;;;;;;9.45;2.70;;;20.20;45.30;;;;;;5115835;27;20030;-75
2022/05/12 06:50:36;;;;;;;7.57;2.63;;;20.20;45.60;;;;;;5115832;27;20021;-72
2022/05/12 06:53:02;;;;;;;6.28;2.78;;;20.20;45.30;;;;;;5116027;27;20031;-72
2022/05/12 06:55:29;;;;;;;5.30;2.40;;;20.30;45.80;;;;;;5115768;27;20106;-72
2022/05/12 06:57:55;;;;;;;9.43;2.70;;;20.40;45.40;;;;;;5115775;28;20027;-72
2022/05/12 07:00:21;;;;;;;4.53;2.90;;;20.50;45.00;;;;;;5115989;27;20023;-72
2022/05/12 07:02:47;;;;;;;4.75;3.08;;;20.50;45.40;;;;;;5115969;27;20022;-72
2022/05/12 07:05:16;;;;;;;7.10;3.10;;;20.60;45.30;;;;;;5115360;28;20023;-71
2022/05/12 07:07:43;;;;;;;6.88;2.30;;;20.60;45.20;;;;;;5122580;28;20034;-72
2022/05/12 07:10:12;;;;;;;5.90;2.90;;;20.50;45.60;;;;;;5115159;28;20027;-72
2022/05/12 07:12:37;;;;;;;6.72;2.50;;;20.70;45.20;;;;;;5115865;28;20026;-72
2022/05/12 07:15:04;;;;;;;11.55;2.65;;;20.80;44.50;;;;;;5115536;28;20394;-72
2022/05/12 07:17:30;;;;;;;4.45;2.72;;;20.90;44.80;;;;;;5115470;28;20062;-72
2022/05/12 07:28:13;;;;;;;6.43;2.60;;;21.20;44.30;;;;;;5134554;28;20034;-73
2022/05/12 07:33:23;;;;;;;6.50;2.45;;;21.10;44.80;;;;;;5134065;28;20041;-73
2022/05/12 07:35:49;;;;;;;6.63;3.15;;;21.00;45.20;;;;;;5098160;28;20023;-73
2022/05/12 07:38:16;;;;;;;7.55;3.08;;;21.00;45.10;;;;;;5115016;28;20455;-73
2022/05/12 07:40:42;;;;;;;7.90;3.00;;;21.20;44.90;;;;;;5115317;28;20023;-73
2022/05/12 07:43:07;;;;;;;5.45;2.75;;;21.20;44.90;;;;;;5115191;28;20118;-73
2022/05/12 07:45:33;;;;;;;9.07;2.90;;;21.30;44.80;;;;;;5115218;28;20028;-71
2022/05/12 07:47:59;;;;;;;8.98;3.40;;;21.30;44.90;;;;;;5115499;28;20027;-72
2022/05/12 07:50:28;;;;;;;8.00;3.15;;;21.40;45.20;;;;;;5115964;28;20114;-73
2022/05/12 07:52:54;;;;;;;7.40;3.13;;;21.50;45.10;;;;;;5115682;28;20053;-72
2022/05/12 07:55:20;;;;;;;6.88;2.80;;;21.70;44.90;;;;;;5115133;28;20456;-72
2022/05/12 07:57:45;;;;;;;7.13;3.50;;;21.90;44.00;;;;;;5115953;28;20049;-73
2022/05/12 08:00:11;;;;;;;7.03;2.88;;;22.20;43.80;;;;;;5115140;28;20026;-72
2022/05/12 08:02:37;;;;;;;5.97;2.67;;;22.30;43.00;;;;;;5133761;28;20031;-73
2022/05/12 08:05:04;;;;;;;9.45;3.03;;;22.50;43.30;;;;;;5117727;28;20027;-72
2022/05/12 08:07:30;;;;;;;9.40;3.53;;;22.60;43.40;;;;;;5133710;28;20044;-72
2022/05/12 08:09:58;;;;;;;11.23;3.78;;;22.70;42.50;;;;;;5114971;28;20068;-72
2022/05/12 08:12:24;;;;;;;12.20;3.05;;;22.70;42.50;;;;;;5114587;28;20027;-75
2022/05/12 08:14:50;;;;;;;8.32;2.83;;;22.60;42.60;;;;;;5114830;28;20160;-73
2022/05/12 08:17:16;;;;;;;8.25;3.35;;;22.80;42.30;;;;;;5114699;28;20106;-73
2022/05/12 08:19:41;;;;;;;8.82;3.30;;;22.80;42.00;;;;;;5114828;28;20508;-73
2022/05/12 08:22:08;;;;;;;7.50;3.15;;;22.70;42.50;;;;;;5115532;27;20233;-73
2022/05/12 08:24:33;;;;;;;9.70;3.13;;;22.60;42.90;;;;;;5118647;27;20020;-73
2022/05/12 08:26:59;;;;;;;11.43;3.10;;;22.80;43.20;;;;;;5118608;27;20030;-73
2022/05/12 08:29:24;;;;;;;10.00;3.75;;;22.70;42.90;;;;;;5118667;27;20479;-74
2022/05/12 08:31:50;;;;;;;16.38;3.40;;;22.70;42.40;;;;;;5118745;27;20023;-74
2022/05/12 08:34:15;;;;;;;6.13;3.03;;;22.60;43.50;;;;;;5118174;27;20157;-74
2022/05/12 08:36:41;;;;;;;8.85;4.10;;;22.60;43.50;;;;;;5117993;27;20026;-73
2022/05/12 08:39:07;;;;;;;10.13;4.32;;;22.60;42.90;;;;;;5118309;27;20479;-73
2022/05/12 08:41:32;;;;;;;6.47;3.00;;;22.70;43.50;;;;;;5117933;27;20401;-74
2022/05/12 08:44:08;;;;;;;8.57;3.67;;;23.00;42.60;;;;;;5117807;27;20049;-74
2022/05/12 08:46:45;;;;;;;8.77;3.30;;;23.10;42.80;;;;;;5117825;27;20023;-74
2022/05/12 08:49:19;;;;;;;8.05;3.80;;;23.30;43.80;;;;;;5117658;27;20122;-74
2022/05/12 08:51:49;;;;;;;8.23;3.53;;;23.40;42.30;;;;;;5118048;27;20076;-75
2022/05/12 08:54:22;;;;;;;10.45;3.45;;;23.60;42.20;;;;;;5117935;27;20031;-75
2022/05/12 08:56:55;;;;;;;5.57;3.30;;;23.70;42.00;;;;;;5136170;27;20094;-75
2022/05/12 08:59:21;;;;;;;12.80;3.55;;;23.50;41.50;;;;;;5117367;27;20471;-74
2022/05/12 09:01:49;;;;;;;14.27;3.60;;;23.40;41.80;;;;;;5116676;27;20037;-75
2022/05/12 09:04:40;;;;;;;11.15;4.57;;;23.30;42.30;;;;;;5118050;27;20435;-75
2022/05/12 09:07:27;;;;;;;8.57;3.67;;;23.10;42.80;;;;;;5117379;27;20126;-74
2022/05/12 09:10:06;;;;;;;7.50;3.53;;;22.80;44.60;;;;;;5117471;27;20016;-73
2022/05/12 09:13:03;;;;;;;6.20;3.13;;;22.80;44.40;;;;;;5117508;27;20031;-73
2022/05/12 09:15:34;;;;;;;8.88;4.03;;;22.80;44.70;;;;;;5117224;27;20039;-74
2022/05/12 09:18:06;;;;;;;9.15;4.20;;;22.90;45.00;;;;;;5116891;27;20068;-74
2022/05/12 09:20:34;;;;;;;22.48;5.20;;;22.80;43.60;;;;;;5117296;27;20507;-74
2022/05/12 09:23:00;;;;;;;11.57;5.15;;;22.70;44.50;;;;;;5117784;27;20050;-74
2022/05/12 09:25:39;;;;;;;9.57;4.72;;;22.70;44.00;;;;;;5117640;27;20463;-74
2022/05/12 09:28:27;;;;;;;12.25;4.70;;;22.60;44.50;;;;;;5117380;27;20539;-74
2022/05/12 09:30:55;;;;;;;11.63;4.88;;;22.60;44.60;;;;;;5117029;27;20105;-74
2022/05/12 09:33:39;;;;;;;23.60;5.20;;;22.20;45.60;;;;;;5116900;27;20059;-74
2022/05/12 09:36:09;;;;;;;20.55;5.30;;;22.20;47.60;;;;;;5117391;27;20020;-74
2022/05/12 09:38:40;;;;;;;12.57;5.05;;;22.30;45.30;;;;;;5117383;27;20050;-74
2022/05/12 09:41:20;;;;;;;19.33;5.72;;;22.30;46.30;;;;;;5116720;27;20023;-74
2022/05/12 09:43:50;;;;;;;8.32;4.85;;;22.30;45.90;;;;;;5116673;27;20050;-74
2022/05/12 09:46:21;;;;;;;7.10;4.72;;;22.30;45.80;;;;;;5116921;27;20027;-74
2022/05/12 09:48:48;;;;;;;17.13;5.57;;;22.50;45.60;;;;;;5116740;27;20106;-74
2022/05/12 09:51:22;;;;;;;15.75;5.13;;;22.70;45.70;;;;;;5116636;27;20023;-74
2022/05/12 09:53:53;;;;;;;14.35;4.68;;;22.80;45.50;;;;;;5116482;27;20501;-74
2022/05/12 09:56:37;;;;;;;14.88;4.97;;;22.80;44.60;;;;;;5116989;27;20107;-74
2022/05/12 09:59:14;;;;;;;12.75;5.55;;;22.70;43.90;;;;;;5117397;27;20020;-74
2022/05/12 10:02:02;;;;;;;11.45;5.20;;;22.80;44.20;;;;;;5116844;27;20103;-74
2022/05/12 10:10:23;;;;;;;11.40;5.22;;;23.00;43.10;;;;;;5135066;27;20034;-74
2022/05/12 10:13:14;;;;;;;13.27;4.88;;;23.00;43.30;;;;;;5116238;27;20134;-73
2022/05/12 10:15:42;;;;;;;16.23;4.70;;;23.20;42.10;;;;;;5069001;27;20031;-75
2022/05/12 10:18:32;;;;;;;11.60;5.30;;;23.50;42.80;;;;;;5116405;27;20023;-74
2022/05/12 10:21:12;;;;;;;9.82;4.80;;;23.50;41.80;;;;;;5115377;27;20429;-78
2022/05/12 10:23:53;;;;;;;9.15;4.95;;;23.40;43.20;;;;;;5116213;27;20031;-77
2022/05/12 10:26:46;;;;;;;6.18;5.03;;;23.60;43.50;;;;;;5117098;27;20126;-77
2022/05/12 10:29:25;;;;;;;8.43;4.72;;;23.70;42.60;;;;;;5118175;27;20027;-77
2022/05/12 10:31:59;;;;;;;8.30;4.95;;;24.00;42.40;;;;;;5119887;27;20119;-78
2022/05/12 10:34:44;;;;;;;6.67;5.00;;;24.20;41.80;;;;;;5115537;27;20039;-74
2022/05/12 10:37:51;;;;;;;15.23;5.20;;;24.30;41.30;;;;;;5115918;27;20023;-75
2022/05/12 10:40:26;;;;;;;12.30;5.18;;;24.70;40.60;;;;;;5115758;27;20636;-74
2022/05/12 10:43:10;;;;;;;8.27;5.05;;;24.70;40.70;;;;;;5116322;27;20455;-74
2022/05/12 10:46:11;;;;;;;9.80;4.40;;;24.70;40.70;;;;;;5115193;27;20034;-76
2022/05/12 10:49:14;;;;;;;8.45;4.38;;;25.20;40.30;;;;;;5098596;27;20034;-73
2022/05/12 10:52:06;;;;;;;10.13;4.68;;;25.70;38.60;;;;;;5115272;27;20050;-75
2022/05/12 10:55:04;;;;;;;7.97;4.38;;;26.00;37.80;;;;;;5115058;27;20471;-74
2022/05/12 10:58:05;;;;;;;7.68;4.22;;;26.10;37.50;;;;;;5115025;27;20023;-74
2022/05/12 11:00:48;;;;;;;5.03;4.13;;;25.70;38.00;;;;;;5053358;28;21081;-74
2022/05/12 11:03:23;;;;;;;9.00;5.10;;;25.80;38.50;;;;;;5053749;28;20032;-75
2022/05/12 11:05:57;;;;;;;7.28;5.05;;;25.50;38.50;;;;;;5037498;28;20082;-74
2022/05/12 11:08:38;;;;;;;12.52;5.03;;;25.40;38.50;;;;;;5037123;28;20052;-74
2022/05/12 11:11:17;;;;;;;6.75;4.60;;;25.70;39.20;;;;;;5053671;28;20044;-75
2022/05/12 11:13:51;;;;;;;18.55;4.47;;;25.70;38.70;;;;;;5054852;28;20539;-76
2022/05/12 11:16:33;;;;;;;12.35;5.10;;;25.70;38.70;;;;;;5054094;28;20036;-78
2022/05/12 11:19:23;;;;;;;8.00;4.70;;;25.50;38.50;;;;;;5053807;28;20025;-78
2022/05/12 11:22:21;;;;;;;10.18;5.07;;;25.80;39.20;;;;;;5053761;28;20112;-78
2022/05/12 11:24:56;;;;;;;9.95;5.50;;;26.20;37.80;;;;;;5017443;28;20414;-77
2022/05/12 11:27:28;;;;;;;8.43;4.38;;;25.90;36.80;;;;;;5053528;28;20024;-77
2022/05/12 11:30:21;;;;;;;9.85;4.65;;;25.60;38.20;;;;;;5053798;28;20515;-78
2022/05/12 11:33:22;;;;;;;7.30;4.65;;;25.80;38.50;;;;;;5111974;28;20039;-78
2022/05/12 11:35:51;;;;;;;10.15;4.60;;;25.80;36.90;;;;;;5073492;28;20058;-77
2022/05/12 11:38:43;;;;;;;9.73;5.07;;;25.70;37.20;;;;;;5073516;28;20040;-79
2022/05/12 11:41:21;;;;;;;10.68;4.90;;;25.30;38.30;;;;;;5090918;28;20028;-78
2022/05/12 11:46:37;;;;;;;11.05;5.15;;;25.30;39.10;;;;;;5090732;28;20112;-76
2022/05/12 11:49:19;;;;;;;6.82;4.57;;;25.00;39.60;;;;;;5090733;28;20024;-77
2022/05/12 11:51:56;;;;;;;7.63;4.57;;;24.80;40.00;;;;;;5090357;28;20628;-78
2022/05/12 11:54:33;;;;;;;8.73;4.90;;;24.80;40.00;;;;;;5072682;28;20037;-78
2022/05/12 11:57:02;;;;;;;10.38;4.57;;;25.20;39.20;;;;;;5073584;28;20701;-77
2022/05/12 11:59:30;;;;;;;6.28;4.78;;;25.20;39.20;;;;;;5060787;28;20032;-77
2022/05/12 12:02:25;;;;;;;23.45;5.57;;;25.10;39.80;;;;;;5077106;28;20056;-77
2022/05/12 12:04:52;;;;;;;12.70;5.13;;;24.80;41.10;;;;;;5077145;28;20020;-78
2022/05/12 12:07:21;;;;;;;15.65;5.55;;;24.80;40.10;;;;;;5104462;28;20052;-76
2022/05/12 12:09:55;;;;;;;9.80;5.32;;;24.90;41.20;;;;;;5120750;28;20036;-84
2022/05/12 12:12:45;;;;;;;12.50;5.10;;;25.20;42.00;;;;;;5084614;28;20031;-85
2022/05/12 12:16:19;;;;;;;20.20;6.20;;;25.30;40.20;;;;;;5116969;28;20035;-83
2022/05/12 12:19:01;;;;;;;10.38;4.88;;;24.80;40.90;;;;;;5080274;28;20066;-74
2022/05/12 12:21:43;;;;;;;8.20;4.88;;;24.60;39.80;;;;;;5076898;28;20063;-79
2022/05/12 12:24:18;;;;;;;10.00;5.13;;;24.70;40.50;;;;;;5111439;28;20105;-75
2022/05/12 12:26:50;;;;;;;11.18;5.00;;;24.80;39.50;;;;;;5116390;28;20051;-75
2022/05/12 12:29:37;;;;;;;7.00;5.03;;;24.90;39.70;;;;;;5113838;28;20038;-72
2022/05/12 12:32:23;;;;;;;8.82;5.00;;;25.20;40.50;;;;;;5098765;28;20031;-74
2022/05/12 12:34:52;;;;;;;11.98;4.82;;;25.40;39.50;;;;;;5095238;28;20511;-84
2022/05/12 12:37:42;;;;;;;8.90;5.30;;;25.70;38.80;;;;;;5100698;28;20663;-75
2022/05/12 12:40:30;;;;;;;12.20;4.85;;;26.00;39.00;;;;;;5097841;28;20093;-74
2022/05/12 12:42:56;;;;;;;13.23;5.22;;;26.40;37.60;;;;;;5095454;28;20024;-79
2022/05/12 12:45:23;;;;;;;8.10;4.78;;;26.00;37.20;;;;;;5098305;28;20032;-78
2022/05/12 12:48:09;;;;;;;6.43;4.85;;;26.10;37.40;;;;;;5097587;28;20431;-79
2022/05/12 12:50:43;;;;;;;15.68;5.55;;;26.30;38.10;;;;;;5096049;28;20034;-76
2022/05/12 12:53:15;;;;;;;13.50;4.88;;;26.50;37.00;;;;;;5096036;28;20093;-79
2022/05/12 12:58:43;;;;;;;10.75;5.10;;;26.60;37.00;;;;;;5096136;28;20549;-77
2022/05/12 13:01:16;;;;;;;10.02;5.25;;;26.40;37.50;;;;;;5096614;28;20127;-77
2022/05/12 13:03:55;;;;;;;10.55;5.40;;;25.90;38.00;;;;;;5095745;28;20024;-78
2022/05/12 13:06:36;;;;;;;15.38;5.35;;;26.10;37.40;;;;;;5096774;28;20031;-77
2022/05/12 13:09:06;;;;;;;10.02;5.03;;;26.00;37.90;;;;;;5096496;28;20038;-77
2022/05/12 13:11:36;;;;;;;7.40;4.60;;;26.00;38.10;;;;;;5095959;28;20051;-78
2022/05/12 13:14:09;;;;;;;8.65;4.78;;;25.80;38.10;;;;;;5096824;28;20035;-77
2022/05/12 13:16:39;;;;;;;9.70;4.68;;;26.00;39.00;;;;;;5095736;28;20099;-78
2022/05/12 13:19:07;;;;;;;9.35;5.05;;;25.90;37.60;;;;;;5095723;28;20028;-79
2022/05/12 13:21:42;;;;;;;12.13;4.63;;;25.90;37.30;;;;;;5095464;28;20021;-77
2022/05/12 13:24:12;;;;;;;9.43;5.00;;;26.00;38.30;;;;;;5095910;28;20028;-78
2022/05/12 13:26:40;;;;;;;10.57;5.00;;;26.30;36.60;;;;;;5095379;28;20024;-79
2022/05/12 13:29:08;;;;;;;8.60;4.55;;;26.40;36.00;;;;;;5095405;28;20115;-76
2022/05/12 13:31:37;;;;;;;7.05;4.30;;;26.60;36.00;;;;;;5094565;28;20027;-79